Time;durP1;ratioP1;P1;durP2;ratioP2;P2;SDS_P1;SDS_P2;PMS_P1;PMS_P2;Temp;Humidity;BMP_temperature;BMP_pressure;BME280_temperature;BME280_humidity;BME280_pressure;Samples;Min_cycle;Max_cycle;Signal;HPM_P1;HPM_P2
2023/03/10 00:02:25;;;;;;;;;;;9.10;93.90;;;;;;5011027;28;19952;-81
2023/03/10 00:04:51;;;;;;;;;;;9.10;93.90;;;;;;5010357;28;19920;-82
2023/03/10 00:07:17;;;;;;;;;;;9.20;93.80;;;;;;5004447;28;19946;-82
2023/03/10 00:09:43;;;;;;;;;;;9.10;93.90;;;;;;5007646;28;19920;-80
2023/03/10 00:12:08;;;;;;;;;;;9.10;93.90;;;;;;5006279;28;19928;-82
2023/03/10 00:14:34;;;;;;;;;;;9.30;94.00;;;;;;5014719;28;20052;-80
2023/03/10 00:16:59;;;;;;;;;;;9.20;93.70;;;;;;5025315;28;19921;-82
2023/03/10 00:19:25;;;;;;;;;;;9.30;93.90;;;;;;5038374;28;19918;-80
2023/03/10 00:21:51;;;;;;;;;;;9.30;93.80;;;;;;5018615;28;19918;-79
2023/03/10 00:24:17;;;;;;;;;;;9.30;93.60;;;;;;5022598;28;20213;-79
2023/03/10 00:26:44;;;;;;;;;;;9.30;93.70;;;;;;5031578;28;19914;-80
2023/03/10 00:29:10;;;;;;;;;;;9.30;93.60;;;;;;5027765;28;19920;-80
2023/03/10 00:31:36;;;;;;;;;;;9.20;93.70;;;;;;5029165;28;20120;-81
2023/03/10 00:34:01;;;;;;;;;;;9.20;93.70;;;;;;5024635;28;20008;-81
2023/03/10 00:36:27;;;;;;;;;;;9.30;93.90;;;;;;5028096;28;19988;-81
2023/03/10 00:38:53;;;;;;;;;;;9.30;93.70;;;;;;5024505;28;19914;-81
2023/03/10 00:41:23;;;;;;;;;;;9.30;93.80;;;;;;5025098;28;19914;-80
2023/03/10 00:43:49;;;;;;;;;;;9.30;93.80;;;;;;5006797;28;20040;-81
2023/03/10 00:46:14;;;;;;;;;;;9.30;93.90;;;;;;5011442;28;19964;-81
2023/03/10 00:48:40;;;;;;;;;;;9.40;93.90;;;;;;5010592;28;19920;-81
2023/03/10 00:51:06;;;;;;;;;;;9.40;93.70;;;;;;5015117;28;19952;-80
2023/03/10 00:53:33;;;;;;;;;;;9.50;93.90;;;;;;5007679;28;19987;-79
2023/03/10 00:55:59;;;;;;;;;;;9.50;93.80;;;;;;5034477;28;19914;-80
2023/03/10 00:58:25;;;;;;;;;;;9.50;93.80;;;;;;5007929;28;19920;-82
2023/03/10 01:00:50;;;;;;;;;;;9.50;93.70;;;;;;5019124;28;19917;-80
2023/03/10 01:03:16;;;;;;;;;;;9.50;93.80;;;;;;5015071;28;19914;-81
2023/03/10 01:05:42;;;;;;;;;;;9.60;93.80;;;;;;5011308;28;19921;-79
2023/03/10 01:08:07;;;;;;;;;;;9.60;93.60;;;;;;5035098;28;19928;-81
2023/03/10 01:10:33;;;;;;;;;;;9.60;93.50;;;;;;5017104;28;19918;-81
2023/03/10 01:12:58;;;;;;;;;;;9.60;93.40;;;;;;5005346;28;20312;-82
2023/03/10 01:15:24;;;;;;;;;;;9.70;93.50;;;;;;5020217;28;19917;-84
2023/03/10 01:17:49;;;;;;;;;;;9.70;93.20;;;;;;5021960;28;20289;-82
2023/03/10 01:20:15;;;;;;;;;;;9.70;93.00;;;;;;5029322;28;19944;-81
2023/03/10 01:22:41;;;;;;;;;;;9.70;92.80;;;;;;5017287;28;19917;-81
2023/03/10 01:25:13;;;;;;;;;;;9.70;92.70;;;;;;5039928;28;19914;-86
2023/03/10 01:27:45;;;;;;;;;;;9.70;92.60;;;;;;5015480;28;19949;-82
2023/03/10 01:30:11;;;;;;;;;;;9.70;92.60;;;;;;5015237;28;19913;-81
2023/03/10 01:32:42;;;;;;;;;;;9.60;92.40;;;;;;5026021;28;20518;-84
2023/03/10 01:35:17;;;;;;;;;;;9.60;92.30;;;;;;5014796;28;19917;-83
2023/03/10 01:37:59;;;;;;;;;;;;;;;;;;;;;
2023/03/10 01:40:25;;;;;;;;;;;9.50;92.50;;;;;;5010199;28;20484;-81
2023/03/10 01:43:10;;;;;;;;;;;9.60;92.40;;;;;;5103409;23;19976;-83
2023/03/10 01:45:35;;;;;;;;;;;9.60;92.40;;;;;;5035063;28;19968;-84
2023/03/10 01:48:00;;;;;;;;;;;9.60;92.50;;;;;;5032067;28;19930;-86
2023/03/10 01:50:34;;;;;;;;;;;9.60;92.70;;;;;;5023932;28;19914;-86
2023/03/10 01:53:00;;;;;;;;;;;9.50;92.60;;;;;;5008127;28;20012;-86
2023/03/10 01:55:31;;;;;;;;;;;9.50;92.80;;;;;;5014042;28;19952;-84
2023/03/10 01:57:56;;;;;;;;;;;9.40;93.10;;;;;;5015614;28;19928;-85
2023/03/10 02:00:23;;;;;;;;;;;9.40;93.20;;;;;;5024111;28;19945;-85
2023/03/10 02:02:51;;;;;;;;;;;9.40;93.30;;;;;;5033639;28;19937;-84
2023/03/10 02:05:17;;;;;;;;;;;9.40;93.30;;;;;;5025590;28;20001;-84
2023/03/10 02:07:43;;;;;;;;;;;9.40;93.40;;;;;;5023217;28;19921;-84
2023/03/10 02:10:10;;;;;;;;;;;9.30;93.40;;;;;;5030482;28;19921;-84
2023/03/10 02:12:35;;;;;;;;;;;9.40;93.40;;;;;;5023448;28;20417;-84
2023/03/10 02:15:01;;;;;;;;;;;9.30;93.40;;;;;;5021684;28;19918;-84
2023/03/10 02:17:27;;;;;;;;;;;9.30;93.40;;;;;;5020374;28;19968;-83
2023/03/10 02:20:11;;;;;;;;;;;9.30;93.50;;;;;;5019896;28;19914;-85
2023/03/10 02:22:38;;;;;;;;;;;9.30;93.60;;;;;;5027118;28;20371;-85
2023/03/10 02:25:12;;;;;;;;;;;9.30;93.70;;;;;;5016425;28;19920;-84
2023/03/10 02:27:39;;;;;;;;;;;9.20;93.80;;;;;;5019381;28;19928;-83
2023/03/10 02:30:06;;;;;;;;;;;9.20;93.90;;;;;;5027560;28;19918;-83
2023/03/10 02:32:33;;;;;;;;;;;9.20;94.00;;;;;;5027833;28;20033;-85
2023/03/10 02:34:58;;;;;;;;;;;9.10;94.00;;;;;;5024009;28;19913;-84
2023/03/10 02:37:29;;;;;;;;;;;9.20;94.20;;;;;;5024563;28;19956;-84
2023/03/10 02:39:55;;;;;;;;;;;9.20;94.10;;;;;;5017140;28;19914;-84
2023/03/10 02:42:24;;;;;;;;;;;9.20;94.20;;;;;;5025467;28;19910;-82
2023/03/10 02:44:50;;;;;;;;;;;9.30;94.20;;;;;;5032985;28;19913;-84
2023/03/10 02:47:15;;;;;;;;;;;9.20;94.20;;;;;;5023028;28;19925;-84
2023/03/10 02:49:41;;;;;;;;;;;9.30;94.30;;;;;;5014844;28;19913;-84
2023/03/10 02:52:08;;;;;;;;;;;9.20;94.10;;;;;;5010706;28;20176;-83
2023/03/10 02:54:34;;;;;;;;;;;9.30;94.30;;;;;;5015673;28;20001;-85
2023/03/10 02:56:59;;;;;;;;;;;9.30;94.20;;;;;;5015352;28;19956;-84
2023/03/10 02:59:25;;;;;;;;;;;9.30;94.20;;;;;;5016241;28;20280;-84
2023/03/10 03:01:50;;;;;;;;;;;9.30;94.10;;;;;;5013871;28;19913;-84
2023/03/10 03:04:16;;;;;;;;;;;9.30;94.20;;;;;;5016317;28;19913;-84
2023/03/10 03:06:41;;;;;;;;;;;9.20;94.10;;;;;;5016714;28;20036;-84
2023/03/10 03:09:07;;;;;;;;;;;9.20;94.20;;;;;;5025230;28;20286;-84
2023/03/10 03:11:32;;;;;;;;;;;9.20;94.20;;;;;;5022450;28;19948;-83
2023/03/10 03:13:57;;;;;;;;;;;9.20;94.20;;;;;;5024733;28;19917;-83
2023/03/10 03:16:23;;;;;;;;;;;9.20;94.20;;;;;;5040764;28;19913;-83
2023/03/10 03:18:48;;;;;;;;;;;9.30;94.20;;;;;;5021403;28;19917;-84
2023/03/10 03:21:16;;;;;;;;;;;9.30;94.20;;;;;;5014311;28;19920;-84
2023/03/10 03:23:42;;;;;;;;;;;9.30;94.20;;;;;;5021786;28;19914;-84
2023/03/10 03:26:18;;;;;;;;;;;9.30;94.00;;;;;;5032193;28;19914;-84
2023/03/10 03:28:44;;;;;;;;;;;9.30;94.20;;;;;;5021095;28;19914;-85
2023/03/10 03:31:14;;;;;;;;;;;9.40;94.20;;;;;;5021716;28;19988;-84
2023/03/10 03:33:39;;;;;;;;;;;9.40;94.20;;;;;;5014122;28;19921;-85
2023/03/10 03:36:05;;;;;;;;;;;9.40;94.20;;;;;;5022734;28;19924;-85
2023/03/10 03:38:31;;;;;;;;;;;9.40;93.90;;;;;;5023366;28;19918;-85
2023/03/10 03:40:57;;;;;;;;;;;9.50;93.90;;;;;;5023900;28;19914;-84
2023/03/10 03:43:22;;;;;;;;;;;9.50;94.00;;;;;;5010800;28;19917;-84
2023/03/10 03:45:47;;;;;;;;;;;9.50;93.80;;;;;;5017732;28;19920;-85
2023/03/10 03:48:14;;;;;;;;;;;9.50;93.80;;;;;;5023331;28;20048;-85
2023/03/10 03:50:39;;;;;;;;;;;9.40;93.80;;;;;;5029378;28;19992;-85
2023/03/10 03:53:05;;;;;;;;;;;9.50;93.90;;;;;;5032134;28;19925;-82
2023/03/10 03:55:30;;;;;;;;;;;9.50;93.80;;;;;;5026227;28;19940;-83
2023/03/10 03:57:56;;;;;;;;;;;9.50;93.60;;;;;;5021465;28;19921;-85
2023/03/10 04:00:22;;;;;;;;;;;9.40;93.70;;;;;;5016972;28;19973;-83
2023/03/10 04:02:48;;;;;;;;;;;9.30;93.70;;;;;;5020360;28;19936;-84
2023/03/10 04:05:14;;;;;;;;;;;9.40;93.90;;;;;;5020802;28;20326;-84
2023/03/10 04:07:40;;;;;;;;;;;9.40;93.90;;;;;;5020941;28;19917;-83
2023/03/10 04:10:07;;;;;;;;;;;9.40;93.80;;;;;;5017072;28;20369;-84
2023/03/10 04:12:33;;;;;;;;;;;9.50;94.00;;;;;;5017503;28;19961;-85
2023/03/10 04:14:58;;;;;;;;;;;9.50;93.70;;;;;;5016279;28;19914;-83
2023/03/10 04:17:24;;;;;;;;;;;9.50;93.90;;;;;;5013927;28;19980;-83
2023/03/10 04:19:49;;;;;;;;;;;9.40;93.80;;;;;;5019016;28;19925;-85
2023/03/10 04:22:15;;;;;;;;;;;9.50;93.90;;;;;;5018191;28;19921;-85
2023/03/10 04:24:40;;;;;;;;;;;9.40;93.90;;;;;;5018937;28;19917;-85
2023/03/10 04:27:08;;;;;;;;;;;9.40;94.00;;;;;;5021618;28;20391;-86
2023/03/10 04:29:35;;;;;;;;;;;9.30;94.00;;;;;;5013764;28;19917;-85
2023/03/10 04:32:00;;;;;;;;;;;9.30;94.10;;;;;;5012758;28;20013;-85
2023/03/10 04:34:26;;;;;;;;;;;9.30;94.00;;;;;;5021950;28;20354;-86
2023/03/10 04:36:51;;;;;;;;;;;9.30;94.00;;;;;;5023113;28;20457;-84
2023/03/10 04:39:17;;;;;;;;;;;9.30;94.10;;;;;;5017000;28;20372;-84
2023/03/10 04:41:42;;;;;;;;;;;9.30;94.10;;;;;;5016458;28;19925;-85
2023/03/10 04:44:08;;;;;;;;;;;9.30;94.10;;;;;;5028084;28;19917;-83
2023/03/10 04:46:34;;;;;;;;;;;9.30;93.90;;;;;;5016255;28;19913;-84
2023/03/10 04:48:59;;;;;;;;;;;9.30;93.90;;;;;;5022068;28;19914;-83
2023/03/10 04:51:25;;;;;;;;;;;9.30;93.70;;;;;;5016227;28;20414;-83
2023/03/10 04:53:50;;;;;;;;;;;9.30;93.60;;;;;;5015106;28;20322;-84
2023/03/10 04:56:16;;;;;;;;;;;9.30;93.50;;;;;;5011006;28;19926;-83
2023/03/10 04:58:41;;;;;;;;;;;9.30;93.50;;;;;;5012363;28;19916;-83
2023/03/10 05:01:08;;;;;;;;;;;9.30;93.50;;;;;;5008990;28;19948;-82
2023/03/10 05:03:34;;;;;;;;;;;9.30;93.50;;;;;;5009352;28;19922;-83
2023/03/10 05:05:59;;;;;;;;;;;9.30;93.50;;;;;;5010438;28;20425;-81
2023/03/10 05:08:25;;;;;;;;;;;9.30;93.50;;;;;;5009786;28;19917;-83
2023/03/10 05:10:50;;;;;;;;;;;9.30;93.40;;;;;;5014157;28;19910;-83
2023/03/10 05:13:15;;;;;;;;;;;9.30;93.30;;;;;;5011473;28;20335;-84
2023/03/10 05:15:41;;;;;;;;;;;9.30;93.50;;;;;;5014948;28;20378;-84
2023/03/10 05:18:07;;;;;;;;;;;9.30;93.40;;;;;;5012672;28;19975;-84
2023/03/10 05:20:33;;;;;;;;;;;9.30;93.40;;;;;;5016402;28;19993;-84
2023/03/10 05:22:58;;;;;;;;;;;9.30;93.30;;;;;;5013292;28;19967;-84
2023/03/10 05:25:24;;;;;;;;;;;9.20;93.40;;;;;;5011002;28;19964;-85
2023/03/10 05:27:49;;;;;;;;;;;9.20;93.20;;;;;;5023086;28;20391;-83
2023/03/10 05:30:15;;;;;;;;;;;9.20;93.20;;;;;;5012960;28;19921;-84
2023/03/10 05:32:41;;;;;;;;;;;9.20;93.20;;;;;;5025583;28;19989;-85
2023/03/10 05:35:06;;;;;;;;;;;9.30;93.30;;;;;;5027682;28;20417;-84
2023/03/10 05:37:35;;;;;;;;;;;9.30;93.20;;;;;;5019122;28;19925;-84
2023/03/10 05:40:00;;;;;;;;;;;9.30;92.90;;;;;;5015810;28;20025;-85
2023/03/10 05:42:26;;;;;;;;;;;9.30;92.90;;;;;;5022799;28;19952;-84
2023/03/10 05:44:51;;;;;;;;;;;9.30;92.60;;;;;;5034410;28;19929;-83
2023/03/10 05:47:18;;;;;;;;;;;9.30;92.40;;;;;;5025320;28;19964;-85
2023/03/10 05:52:12;;;;;;;;;;;9.30;92.40;;;;;;5029877;22;20025;-76
2023/03/10 05:54:38;;;;;;;;;;;9.20;92.30;;;;;;4999120;28;20375;-75
2023/03/10 05:57:04;;;;;;;;;;;9.20;92.30;;;;;;5000154;28;19914;-76
2023/03/10 05:59:29;;;;;;;;;;;9.10;92.30;;;;;;4996983;28;19914;-76
2023/03/10 06:01:54;;;;;;;;;;;9.10;92.40;;;;;;4999563;28;20381;-74
2023/03/10 06:04:20;;;;;;;;;;;9.00;92.40;;;;;;5003980;28;19930;-74
2023/03/10 06:06:45;;;;;;;;;;;9.10;92.50;;;;;;4998358;28;19914;-75
2023/03/10 06:09:11;;;;;;;;;;;9.00;92.30;;;;;;5003485;28;20504;-76
2023/03/10 06:11:36;;;;;;;;;;;9.00;92.50;;;;;;5007807;28;19920;-76
2023/03/10 06:14:03;;;;;;;;;;;9.00;92.40;;;;;;5000062;28;19953;-76
2023/03/10 06:16:28;;;;;;;;;;;9.00;92.30;;;;;;4999373;28;19995;-76
2023/03/10 06:18:54;;;;;;;;;;;9.00;92.40;;;;;;5001884;28;19958;-75
2023/03/10 06:21:20;;;;;;;;;;;9.00;92.50;;;;;;4999166;28;19917;-76
2023/03/10 06:23:45;;;;;;;;;;;9.10;92.50;;;;;;5003774;28;19922;-75
2023/03/10 06:26:12;;;;;;;;;;;9.10;92.50;;;;;;5004434;28;20358;-75
2023/03/10 06:28:38;;;;;;;;;;;9.10;92.40;;;;;;5007267;28;19945;-75
2023/03/10 06:31:06;;;;;;;;;;;9.00;92.50;;;;;;5004937;28;19961;-74
2023/03/10 06:33:31;;;;;;;;;;;9.10;92.60;;;;;;5008283;28;19984;-75
2023/03/10 06:35:57;;;;;;;;;;;9.10;92.50;;;;;;5005418;28;19952;-76
2023/03/10 06:38:22;;;;;;;;;;;9.10;92.60;;;;;;5004936;28;20001;-76
2023/03/10 06:40:48;;;;;;;;;;;9.20;92.50;;;;;;5004455;28;20373;-77
2023/03/10 06:43:14;;;;;;;;;;;9.10;92.30;;;;;;5008091;28;19925;-76
2023/03/10 06:45:40;;;;;;;;;;;9.10;92.30;;;;;;5004756;28;19913;-75
2023/03/10 06:48:05;;;;;;;;;;;9.20;92.40;;;;;;5010467;28;19920;-76
2023/03/10 06:50:31;;;;;;;;;;;9.30;92.10;;;;;;5023211;28;19909;-76
2023/03/10 06:52:56;;;;;;;;;;;9.30;91.90;;;;;;5037901;28;19925;-77
2023/03/10 06:55:21;;;;;;;;;;;9.40;91.60;;;;;;5026166;28;20381;-76
2023/03/10 06:57:47;;;;;;;;;;;9.30;91.70;;;;;;5026490;28;20320;-77
2023/03/10 07:00:14;;;;;;;;;;;9.30;91.60;;;;;;5001534;28;19913;-76
2023/03/10 07:02:40;;;;;;;;;;;9.40;91.80;;;;;;5033770;28;19920;-76
2023/03/10 07:05:07;;;;;;;;;;;9.50;91.70;;;;;;5029887;28;19913;-76
2023/03/10 07:07:33;;;;;;;;;;;9.60;91.40;;;;;;5016631;28;19936;-76
2023/03/10 07:09:58;;;;;;;;;;;9.60;90.90;;;;;;5010858;28;19917;-75
2023/03/10 07:12:24;;;;;;;;;;;9.60;91.00;;;;;;5021548;28;20399;-76
2023/03/10 07:14:50;;;;;;;;;;;9.70;91.00;;;;;;5023644;28;20043;-76
2023/03/10 07:17:16;;;;;;;;;;;9.70;90.70;;;;;;5029698;28;19917;-75
2023/03/10 07:19:41;;;;;;;;;;;9.70;90.60;;;;;;5024976;28;21612;-75
2023/03/10 07:22:07;;;;;;;;;;;9.80;90.60;;;;;;5025412;28;19913;-74
2023/03/10 07:24:32;;;;;;;;;;;9.80;90.60;;;;;;5023550;28;20296;-75
2023/03/10 07:26:59;;;;;;;;;;;9.80;90.90;;;;;;5007217;28;19967;-75
2023/03/10 07:29:24;;;;;;;;;;;9.70;91.10;;;;;;5000396;28;19936;-75
2023/03/10 07:31:49;;;;;;;;;;;9.70;91.10;;;;;;5020563;28;20293;-75
2023/03/10 07:34:15;;;;;;;;;;;9.70;91.20;;;;;;5011339;28;20039;-74
2023/03/10 07:36:40;;;;;;;;;;;9.60;91.30;;;;;;4995970;28;20016;-75
2023/03/10 07:39:06;;;;;;;;;;;9.60;91.60;;;;;;5003649;28;19917;-75
2023/03/10 07:41:31;;;;;;;;;;;9.60;91.70;;;;;;5018888;28;20347;-75
2023/03/10 07:43:57;;;;;;;;;;;9.60;91.80;;;;;;4994327;28;19909;-74
2023/03/10 07:46:22;;;;;;;;;;;9.80;91.80;;;;;;5011365;28;19913;-74
2023/03/10 07:48:48;;;;;;;;;;;9.90;91.60;;;;;;4994829;28;19916;-74
2023/03/10 07:51:13;;;;;;;;;;;9.80;91.50;;;;;;5011576;28;19925;-74
2023/03/10 07:53:39;;;;;;;;;;;9.80;91.50;;;;;;5030783;28;19963;-74
2023/03/10 07:56:08;;;;;;;;;;;9.80;91.70;;;;;;5001716;28;19932;-74
2023/03/10 07:58:34;;;;;;;;;;;9.70;91.40;;;;;;5031648;28;19913;-75
2023/03/10 08:00:59;;;;;;;;;;;9.70;91.60;;;;;;5027744;28;19909;-75
2023/03/10 08:03:26;;;;;;;;;;;9.70;91.50;;;;;;5013574;28;19913;-77
2023/03/10 08:05:51;;;;;;;;;;;9.80;91.60;;;;;;5020892;28;19913;-74
2023/03/10 08:08:17;;;;;;;;;;;9.70;91.60;;;;;;5020925;28;19917;-74
2023/03/10 08:10:43;;;;;;;;;;;9.80;91.70;;;;;;4999535;28;19992;-74
2023/03/10 08:13:09;;;;;;;;;;;9.90;91.90;;;;;;5021058;28;19939;-74
2023/03/10 08:15:36;;;;;;;;;;;9.90;91.60;;;;;;5026763;28;19918;-73
2023/03/10 08:18:04;;;;;;;;;;;9.90;91.60;;;;;;5011725;28;20381;-76
2023/03/10 08:20:29;;;;;;;;;;;9.80;91.80;;;;;;5005751;28;20015;-75
2023/03/10 08:22:55;;;;;;;;;;;9.90;91.90;;;;;;5008004;28;20428;-75
2023/03/10 08:25:20;;;;;;;;;;;9.90;91.70;;;;;;5014660;28;20004;-75
2023/03/10 08:27:45;;;;;;;;;;;9.90;91.70;;;;;;5004507;28;20438;-75
2023/03/10 08:30:11;;;;;;;;;;;9.90;91.70;;;;;;5029433;28;19909;-76
2023/03/10 08:32:37;;;;;;;;;;;9.90;91.80;;;;;;5031082;28;20000;-76
2023/03/10 08:35:06;;;;;;;;;;;10.00;92.00;;;;;;5005365;28;19910;-77
2023/03/10 08:37:31;;;;;;;;;;;10.10;91.40;;;;;;5013156;28;19936;-77
2023/03/10 08:39:57;;;;;;;;;;;10.00;91.40;;;;;;5010143;28;20373;-77
2023/03/10 08:42:23;;;;;;;;;;;10.10;91.60;;;;;;5021141;28;19941;-78
2023/03/10 08:44:48;;;;;;;;;;;10.10;91.40;;;;;;5016528;28;19920;-77
2023/03/10 08:47:14;;;;;;;;;;;10.10;91.40;;;;;;5024630;28;19924;-79
2023/03/10 08:49:39;;;;;;;;;;;10.20;91.40;;;;;;5020824;28;19909;-78
2023/03/10 08:52:06;;;;;;;;;;;10.30;91.30;;;;;;5027724;28;19921;-78
2023/03/10 08:54:32;;;;;;;;;;;10.40;90.90;;;;;;5029873;23;20416;-86
2023/03/10 08:56:58;;;;;;;;;;;10.50;91.00;;;;;;5040494;28;19921;-86
2023/03/10 08:59:23;;;;;;;;;;;10.50;90.70;;;;;;5013350;28;19909;-85
2023/03/10 09:01:49;;;;;;;;;;;10.50;90.50;;;;;;5014560;28;19909;-85
2023/03/10 09:04:14;;;;;;;;;;;10.60;90.30;;;;;;5014035;28;20379;-86
2023/03/10 09:06:40;;;;;;;;;;;10.60;90.10;;;;;;5031345;28;20386;-86
2023/03/10 09:09:06;;;;;;;;;;;10.60;90.20;;;;;;5014764;28;20022;-87
2023/03/10 09:11:33;;;;;;;;;;;10.60;89.90;;;;;;5032631;28;19913;-85
2023/03/10 09:13:59;;;;;;;;;;;10.60;89.90;;;;;;5014711;28;20002;-85
2023/03/10 09:16:24;;;;;;;;;;;10.80;89.80;;;;;;5033276;28;19913;-79
2023/03/10 09:18:50;;;;;;;;;;;10.70;89.60;;;;;;5048465;28;19960;-86
2023/03/10 09:21:16;;;;;;;;;;;10.70;89.60;;;;;;5016995;28;19917;-85
2023/03/10 09:23:43;;;;;;;;;;;10.60;89.40;;;;;;5038517;28;19948;-84
2023/03/10 09:26:08;;;;;;;;;;;10.60;89.70;;;;;;5055405;28;19949;-83
2023/03/10 09:28:34;;;;;;;;;;;10.70;89.40;;;;;;5024237;28;19909;-85
2023/03/10 09:31:00;;;;;;;;;;;10.80;89.30;;;;;;5015980;28;19913;-85
2023/03/10 09:33:25;;;;;;;;;;;10.80;89.00;;;;;;5014968;28;20004;-85
2023/03/10 09:35:51;;;;;;;;;;;10.90;89.00;;;;;;5031759;28;20333;-85
2023/03/10 09:38:16;;;;;;;;;;;10.80;89.10;;;;;;5011536;28;19964;-85
2023/03/10 09:40:47;;;;;;;;;;;10.70;89.30;;;;;;5037251;28;19913;-84
2023/03/10 09:43:14;;;;;;;;;;;10.60;89.50;;;;;;5026354;28;19959;-85
2023/03/10 09:45:51;;;;;;;;;;;10.60;89.50;;;;;;5015482;28;20384;-85
2023/03/10 09:48:20;;;;;;;;;;;10.50;89.80;;;;;;5024676;28;20023;-86
2023/03/10 09:50:47;;;;;;;;;;;10.60;89.60;;;;;;5011321;28;20366;-85
2023/03/10 09:53:31;;;;;;;;;;;10.70;89.60;;;;;;5011372;28;20528;-86
2023/03/10 09:55:57;;;;;;;;;;;10.70;89.80;;;;;;5013222;28;19929;-85
2023/03/10 09:58:35;;;;;;;;;;;10.90;89.70;;;;;;5003006;28;19948;-86
2023/03/10 10:01:01;;;;;;;;;;;11.00;89.50;;;;;;4996372;28;20394;-86
2023/03/10 10:03:41;;;;;;;;;;;11.20;88.70;;;;;;5013329;28;19924;-85
2023/03/10 10:06:07;;;;;;;;;;;11.30;88.30;;;;;;5017518;28;19918;-85
2023/03/10 10:08:42;;;;;;;;;;;11.40;88.30;;;;;;4999219;28;19920;-84
2023/03/10 10:11:13;;;;;;;;;;;11.50;87.90;;;;;;4995862;28;19941;-84
2023/03/10 10:13:38;;;;;;;;;;;11.50;87.30;;;;;;5016623;28;19922;-83
2023/03/10 10:16:04;;;;;;;;;;;11.50;86.90;;;;;;5008856;28;19921;-83
2023/03/10 10:18:35;;;;;;;;;;;11.50;87.00;;;;;;4995797;28;20004;-82
2023/03/10 10:21:05;;;;;;;;;;;11.50;86.00;;;;;;4995402;28;19918;-83
2023/03/10 10:23:30;;;;;;;;;;;11.30;86.40;;;;;;5006982;28;19925;-83
2023/03/10 10:25:59;;;;;;;;;;;11.30;86.60;;;;;;4998609;28;19913;-82
2023/03/10 10:28:45;;;;;;;;;;;11.30;86.70;;;;;;4994804;28;19920;-86
2023/03/10 10:31:12;;;;;;;;;;;11.50;86.50;;;;;;5010794;28;19923;-84
2023/03/10 10:33:57;;;;;;;;;;;11.60;86.00;;;;;;4998784;28;20039;-85
2023/03/10 10:36:24;;;;;;;;;;;11.80;85.60;;;;;;5008704;28;19910;-83
2023/03/10 10:38:50;;;;;;;;;;;11.80;85.40;;;;;;4988650;28;20008;-84
2023/03/10 10:41:19;;;;;;;;;;;12.00;85.10;;;;;;5013733;28;19917;-85
2023/03/10 10:43:44;;;;;;;;;;;12.00;84.80;;;;;;4995979;28;19914;-86
2023/03/10 10:46:11;;;;;;;;;;;12.00;85.30;;;;;;4996593;28;20303;-84
2023/03/10 10:48:41;;;;;;;;;;;12.00;84.80;;;;;;5015929;28;19921;-85
2023/03/10 10:51:31;;;;;;;;;;;12.10;84.40;;;;;;4995667;28;19913;-84
2023/03/10 10:54:16;;;;;;;;;;;12.00;83.70;;;;;;4995730;28;19924;-85
2023/03/10 10:56:50;;;;;;;;;;;12.00;83.00;;;;;;5033509;28;19917;-84
2023/03/10 10:59:20;;;;;;;;;;;12.10;83.20;;;;;;5036117;28;19924;-84
2023/03/10 11:01:54;;;;;;;;;;;12.10;82.60;;;;;;5043096;28;19913;-86
2023/03/10 11:04:21;;;;;;;;;;;12.10;82.70;;;;;;5016131;28;19999;-87
2023/03/10 11:06:46;;;;;;;;;;;12.20;82.20;;;;;;5020192;28;19952;-85
2023/03/10 11:09:19;;;;;;;;;;;12.10;81.60;;;;;;5049958;28;19917;-81
2023/03/10 11:12:00;;;;;;;;;;;12.10;82.10;;;;;;5022518;28;20016;-83
2023/03/10 11:14:32;;;;;;;;;;;12.30;82.00;;;;;;5015775;28;19921;-83
2023/03/10 11:17:01;;;;;;;;;;;12.50;81.60;;;;;;5016627;28;19928;-83
2023/03/10 11:19:27;;;;;;;;;;;12.60;81.00;;;;;;5029153;28;19914;-83
2023/03/10 11:21:56;;;;;;;;;;;12.70;80.30;;;;;;5013144;28;19913;-83
2023/03/10 11:24:33;;;;;;;;;;;12.80;78.50;;;;;;5022849;28;19925;-85
2023/03/10 11:27:04;;;;;;;;;;;12.70;78.60;;;;;;5023282;28;19917;-86
2023/03/10 11:29:32;;;;;;;;;;;12.60;78.40;;;;;;5038698;28;19913;-86
2023/03/10 11:31:57;;;;;;;;;;;12.60;79.00;;;;;;5022958;28;19921;-85
2023/03/10 11:34:34;;;;;;;;;;;12.70;77.70;;;;;;5038311;28;19932;-86
2023/03/10 11:37:13;;;;;;;;;;;12.70;78.70;;;;;;5039438;28;19948;-86
2023/03/10 11:39:44;;;;;;;;;;;12.80;76.90;;;;;;5045473;28;19937;-84
2023/03/10 11:42:18;;;;;;;;;;;12.70;77.50;;;;;;5053465;28;19917;-84
2023/03/10 11:44:47;;;;;;;;;;;12.90;77.70;;;;;;5022286;28;19967;-87
2023/03/10 11:47:19;;;;;;;;;;;13.10;76.00;;;;;;5014351;28;19944;-82
2023/03/10 11:49:49;;;;;;;;;;;13.20;77.20;;;;;;5030026;28;19968;-84
2023/03/10 11:52:17;;;;;;;;;;;13.30;76.70;;;;;;5045092;22;19929;-83
2023/03/10 11:54:52;;;;;;;;;;;13.20;75.70;;;;;;5027804;28;19921;-85
2023/03/10 11:57:18;;;;;;;;;;;13.10;75.30;;;;;;5023067;28;19945;-84
2023/03/10 11:59:52;;;;;;;;;;;13.10;75.80;;;;;;5032064;28;19913;-84
2023/03/10 12:02:24;;;;;;;;;;;13.00;74.80;;;;;;5016065;28;20341;-86
2023/03/10 12:04:52;;;;;;;;;;;13.00;76.30;;;;;;5011260;28;19913;-87
2023/03/10 12:07:23;;;;;;;;;;;12.90;75.10;;;;;;5012116;28;19980;-86
2023/03/10 12:09:50;;;;;;;;;;;12.60;76.00;;;;;;5016057;28;19976;-85
2023/03/10 12:12:22;;;;;;;;;;;12.50;77.40;;;;;;5038539;28;19914;-84
2023/03/10 12:14:47;;;;;;;;;;;12.30;79.50;;;;;;5013182;28;19922;-88
2023/03/10 12:17:14;;;;;;;;;;;12.10;81.30;;;;;;5013844;28;20015;-89
2023/03/10 12:19:58;;;;;;;;;;;11.80;81.90;;;;;;5011774;28;19987;-86
2023/03/10 12:22:24;;;;;;;;;;;11.70;82.60;;;;;;5011750;28;19924;-88
2023/03/10 12:24:51;;;;;;;;;;;11.60;83.70;;;;;;5013735;28;19913;-88
2023/03/10 12:27:17;;;;;;;;;;;11.30;84.70;;;;;;5010984;28;19913;-88
2023/03/10 12:29:43;;;;;;;;;;;11.20;85.30;;;;;;5007460;28;20401;-88
2023/03/10 12:32:27;;;;;;;;;;;11.20;86.00;;;;;;5012592;28;19993;-88
2023/03/10 12:35:14;;;;;;;;;;;11.10;86.30;;;;;;5012748;28;20032;-91
2023/03/10 12:37:40;;;;;;;;;;;11.20;86.90;;;;;;5018025;28;19921;-89
2023/03/10 12:40:25;;;;;;;;;;;11.10;86.60;;;;;;5015329;28;19925;-90
2023/03/10 12:42:51;;;;;;;;;;;11.10;87.10;;;;;;5013042;28;19910;-90
2023/03/10 12:45:20;;;;;;;;;;;11.10;87.40;;;;;;5006668;28;19996;-89
2023/03/10 12:48:10;;;;;;;;;;;11.00;87.10;;;;;;5009490;28;19909;-89
2023/03/10 12:50:48;;;;;;;;;;;10.90;87.50;;;;;;5006959;28;19913;-89
2023/03/10 12:53:19;;;;;;;;;;;10.90;88.00;;;;;;5010846;28;19914;-89
2023/03/10 12:56:03;;;;;;;;;;;11.00;88.30;;;;;;4996091;28;19914;-88
2023/03/10 12:58:29;;;;;;;;;;;11.00;87.10;;;;;;5009023;28;19917;-88
2023/03/10 13:01:00;;;;;;;;;;;11.00;87.30;;;;;;5013062;28;19980;-88
2023/03/10 13:03:28;;;;;;;;;;;11.10;87.60;;;;;;5013490;28;19961;-89
2023/03/10 13:05:59;;;;;;;;;;;11.10;87.70;;;;;;4997928;28;20191;-87
2023/03/10 13:08:30;;;;;;;;;;;11.20;87.60;;;;;;4996456;28;20000;-87
2023/03/10 13:10:57;;;;;;;;;;;11.10;87.60;;;;;;5005943;28;20413;-86
2023/03/10 13:13:25;;;;;;;;;;;11.00;87.80;;;;;;4994810;28;19909;-86
2023/03/10 13:15:58;;;;;;;;;;;11.10;88.00;;;;;;5003073;28;19917;-87
2023/03/10 13:18:24;;;;;;;;;;;11.10;87.90;;;;;;4997746;28;19960;-87
2023/03/10 13:20:49;;;;;;;;;;;11.30;87.70;;;;;;5010756;28;20342;-87
2023/03/10 13:23:26;;;;;;;;;;;11.20;87.40;;;;;;4995941;28;19925;-88
2023/03/10 13:25:56;;;;;;;;;;;11.30;87.60;;;;;;4990653;28;19918;-88
2023/03/10 13:28:26;;;;;;;;;;;11.10;86.70;;;;;;5005346;28;20071;-88
2023/03/10 13:31:04;;;;;;;;;;;11.30;87.20;;;;;;5004502;28;20429;-86
2023/03/10 13:33:30;;;;;;;;;;;11.30;86.40;;;;;;5005190;28;20051;-85
2023/03/10 13:35:55;;;;;;;;;;;11.30;86.70;;;;;;4988110;28;20056;-85
2023/03/10 13:38:23;;;;;;;;;;;11.20;86.70;;;;;;4990384;28;19960;-88
2023/03/10 13:40:59;;;;;;;;;;;11.10;86.80;;;;;;4991457;28;19913;-89
2023/03/10 13:43:27;;;;;;;;;;;11.10;87.10;;;;;;4990124;28;20382;-90
2023/03/10 13:45:54;;;;;;;;;;;11.00;87.40;;;;;;4988637;28;19972;-89
2023/03/10 13:48:21;;;;;;;;;;;11.00;87.30;;;;;;4987395;28;19917;-89
2023/03/10 13:50:47;;;;;;;;;;;10.80;87.80;;;;;;5009415;28;19917;-89
2023/03/10 13:53:23;;;;;;;;;;;10.70;87.80;;;;;;4987346;28;19925;-89
2023/03/10 13:55:49;;;;;;;;;;;10.60;88.40;;;;;;4986705;28;20379;-89
2023/03/10 13:58:14;;;;;;;;;;;10.70;88.80;;;;;;4988110;28;19921;-89
2023/03/10 14:00:46;;;;;;;;;;;10.60;88.80;;;;;;5007784;28;19921;-89
2023/03/10 14:03:11;;;;;;;;;;;10.60;88.70;;;;;;4995330;28;19917;-87
2023/03/10 14:05:39;;;;;;;;;;;10.50;89.10;;;;;;5009901;28;20009;-87
2023/03/10 14:08:05;;;;;;;;;;;10.60;89.30;;;;;;5013544;28;19920;-86
2023/03/10 14:10:31;;;;;;;;;;;10.60;88.90;;;;;;5008791;28;19917;-87
2023/03/10 14:13:29;;;;;;;;;;;10.60;88.60;;;;;;5001367;28;19920;-88
2023/03/10 14:15:54;;;;;;;;;;;10.50;88.90;;;;;;5000489;28;20316;-92
2023/03/10 14:18:20;;;;;;;;;;;10.50;89.00;;;;;;4991163;28;20450;-88
2023/03/10 14:20:46;;;;;;;;;;;10.40;89.10;;;;;;4992185;28;19913;-89
2023/03/10 14:23:18;;;;;;;;;;;10.40;89.50;;;;;;4989517;28;19918;-89
2023/03/10 14:25:53;;;;;;;;;;;10.30;89.90;;;;;;4991008;28;20422;-87
2023/03/10 14:28:32;;;;;;;;;;;10.20;89.80;;;;;;5002871;28;19988;-88
2023/03/10 14:30:58;;;;;;;;;;;10.10;90.40;;;;;;5005937;28;20342;-86
2023/03/10 14:33:24;;;;;;;;;;;10.20;90.50;;;;;;4990172;28;19953;-89